createdAt,value
2019-03-28T00:00:36.594Z,67.18
2019-03-28T00:01:36.500Z,67.18
2019-03-28T00:02:36.993Z,67.18
2019-03-28T00:03:36.483Z,67.27
2019-03-28T00:04:36.474Z,67.37
2019-03-28T00:05:36.465Z,67.37
2019-03-28T00:06:36.457Z,67.37
2019-03-28T00:07:36.452Z,67.46
2019-03-28T00:08:36.440Z,67.46
2019-03-28T00:09:36.439Z,67.46
2019-03-28T00:10:36.420Z,67.46
2019-03-28T00:11:36.413Z,67.46
2019-03-28T00:12:36.406Z,67.56
2019-03-28T00:13:36.397Z,67.75
2019-03-28T00:14:36.389Z,67.85
2019-03-28T00:15:36.414Z,67.9
2019-03-28T00:16:36.372Z,68
2019-03-28T00:17:36.394Z,68
2019-03-28T00:18:36.354Z,68.04
2019-03-28T00:19:36.102Z,68.04
2019-03-28T00:20:36.335Z,68.1
2019-03-28T00:21:36.326Z,68
2019-03-28T00:22:36.318Z,67.81
2019-03-28T00:23:36.307Z,67.75
2019-03-28T00:24:36.297Z,67.75
2019-03-28T00:25:36.288Z,67.75
2019-03-28T00:26:36.280Z,67.71
2019-03-28T00:27:36.274Z,67.75
2019-03-28T00:28:36.960Z,67.85
2019-03-28T00:29:36.254Z,67.85
2019-03-28T00:30:36.246Z,67.85
2019-03-28T00:31:36.240Z,67.81
2019-03-28T00:32:35.982Z,67.94
2019-03-28T00:33:36.225Z,67.81
2019-03-28T00:34:36.211Z,67.75
2019-03-28T00:35:36.202Z,67.65
2019-03-28T00:36:36.201Z,67.65
2019-03-28T00:37:36.187Z,67.65
2019-03-28T00:38:36.174Z,67.65
2019-03-28T00:39:36.169Z,67.65
2019-03-28T00:40:36.163Z,67.65
2019-03-28T00:41:36.148Z,67.75
2019-03-28T00:42:36.161Z,67.75
2019-03-28T00:43:36.130Z,67.85
2019-03-28T00:44:35.875Z,67.94
2019-03-28T00:45:36.116Z,68.04
2019-03-28T00:46:36.109Z,68.04
2019-03-28T00:47:36.236Z,68.04
2019-03-28T00:48:36.088Z,68.04
2019-03-28T00:49:36.085Z,67.94
2019-03-28T00:50:36.856Z,68.04
2019-03-28T00:51:36.061Z,68.04
2019-03-28T00:52:36.062Z,68.13
2019-03-28T00:53:36.044Z,68.04
2019-03-28T00:54:36.039Z,67.94
2019-03-28T00:55:36.026Z,67.85
2019-03-28T00:56:50.174Z,67.56
2019-03-28T00:57:36.013Z,67.37
2019-03-28T00:58:36.653Z,67.27
2019-03-28T00:59:35.994Z,67.27
2019-03-28T01:00:35.984Z,67.18
2019-03-28T01:01:35.974Z,67.18
2019-03-28T01:02:35.969Z,67.18
2019-03-28T01:03:36.427Z,67.18
2019-03-28T01:04:35.949Z,67.18
2019-03-28T01:05:35.944Z,67.18
2019-03-28T01:06:35.930Z,67.18
2019-03-28T01:07:35.922Z,67.37
2019-03-28T01:08:35.915Z,67.37
2019-03-28T01:09:35.901Z,67.27
2019-03-28T01:10:35.894Z,67.18
2019-03-28T01:11:35.887Z,67.27
2019-03-28T01:12:35.877Z,67.46
2019-03-28T01:13:35.869Z,67.46
2019-03-28T01:14:35.860Z,67.37
2019-03-28T01:15:35.850Z,67.27
2019-03-28T01:16:35.843Z,67.18
2019-03-28T01:17:35.834Z,67.18
2019-03-28T01:18:35.824Z,67.18
2019-03-28T01:19:35.819Z,67.27
2019-03-28T01:20:35.813Z,67.27
2019-03-28T01:21:35.546Z,67.27
2019-03-28T01:22:35.792Z,67.37
2019-03-28T01:23:35.779Z,67.37
2019-03-28T01:24:36.167Z,67.37
2019-03-28T01:25:35.764Z,67.46
2019-03-28T01:26:35.758Z,67.46
2019-03-28T01:27:35.745Z,67.56
2019-03-28T01:28:35.735Z,67.56
2019-03-28T01:29:35.728Z,67.65
2019-03-28T01:30:35.724Z,67.65
2019-03-28T01:31:36.170Z,67.65
2019-03-28T01:32:35.699Z,67.56
2019-03-28T01:33:35.693Z,67.46
2019-03-28T01:34:35.756Z,67.46
2019-03-28T01:35:35.671Z,67.46
2019-03-28T01:36:35.665Z,67.46
2019-03-28T01:37:35.672Z,67.46
2019-03-28T01:38:35.648Z,67.56
2019-03-28T01:39:35.638Z,67.56
2019-03-28T01:40:35.632Z,67.65
2019-03-28T01:41:35.616Z,67.85
2019-03-28T01:42:35.611Z,68.04
2019-03-28T01:43:35.604Z,68.13
2019-03-28T01:44:35.632Z,68.23
2019-03-28T01:45:35.841Z,68.32
2019-03-28T01:46:35.575Z,68.48
2019-03-28T01:47:35.565Z,68.57
2019-03-28T01:48:35.760Z,68.66
2019-03-28T01:49:35.552Z,68.66
2019-03-28T01:50:35.544Z,68.66
2019-03-28T01:51:35.534Z,68.76
2019-03-28T01:52:35.527Z,68.95
2019-03-28T01:53:35.518Z,69.13
2019-03-28T01:54:35.509Z,69.23
2019-03-28T01:55:35.500Z,69.33
2019-03-28T01:56:36.308Z,69.42
2019-03-28T01:57:35.479Z,69.42
2019-03-28T01:58:35.474Z,69.52
2019-03-28T01:59:35.465Z,69.71
2019-03-28T02:00:35.457Z,69.8
2019-03-28T02:01:35.445Z,69.9
2019-03-28T02:02:35.435Z,70.09
2019-03-28T02:03:35.173Z,70.09
2019-03-28T02:04:35.413Z,70.18
2019-03-28T02:05:35.408Z,70.18
2019-03-28T02:06:35.399Z,70.18
2019-03-28T02:07:35.143Z,70.18
2019-03-28T02:08:35.382Z,70.28
2019-03-28T02:09:35.372Z,70.28
2019-03-28T02:10:35.363Z,70.37
2019-03-28T02:11:35.352Z,70.37
2019-03-28T02:12:35.348Z,70.37
2019-03-28T02:13:35.340Z,70.37
2019-03-28T02:14:35.329Z,70.37
2019-03-28T02:15:35.320Z,70.47
2019-03-28T02:16:35.308Z,70.56
2019-03-28T02:17:35.300Z,70.65
2019-03-28T02:18:35.295Z,70.65
2019-03-28T02:19:35.285Z,70.75
2019-03-28T02:20:36.163Z,70.84
2019-03-28T02:21:35.268Z,70.94
2019-03-28T02:22:35.259Z,70.84
2019-03-28T02:23:35.249Z,70.75
2019-03-28T02:24:35.238Z,70.75
2019-03-28T02:25:35.235Z,70.94
2019-03-28T02:26:35.220Z,71.03
2019-03-28T02:27:35.213Z,71.13
2019-03-28T02:28:35.204Z,71.22
2019-03-28T02:29:35.718Z,71.41
2019-03-28T02:30:35.189Z,71.41
2019-03-28T02:31:34.925Z,71.41
2019-03-28T02:32:36.352Z,71.41
2019-03-28T02:33:35.164Z,71.41
2019-03-28T02:34:35.151Z,71.41
2019-03-28T02:35:35.156Z,71.6
2019-03-28T02:36:35.137Z,71.7
2019-03-28T02:37:35.133Z,71.7
2019-03-28T02:38:35.189Z,71.6
2019-03-28T02:39:35.110Z,71.6
2019-03-28T02:40:35.098Z,71.6
2019-03-28T02:41:35.223Z,71.51
2019-03-28T02:42:35.080Z,71.6
2019-03-28T02:43:35.078Z,71.6
2019-03-28T02:44:35.069Z,71.7
2019-03-28T02:45:35.074Z,71.7
2019-03-28T02:46:35.144Z,71.8
2019-03-28T02:47:35.721Z,71.98
2019-03-28T02:48:35.029Z,72.27
2019-03-28T02:49:35.032Z,72.55
2019-03-28T02:50:35.042Z,72.64
2019-03-28T02:51:34.997Z,72.74
2019-03-28T02:52:34.990Z,72.93
2019-03-28T02:53:34.980Z,73.12
2019-03-28T02:54:34.974Z,73.31
2019-03-28T02:55:34.964Z,73.41
2019-03-28T02:56:34.954Z,73.41
2019-03-28T02:57:44.110Z,73.41
2019-03-28T02:58:34.939Z,73.22
2019-03-28T02:59:34.938Z,73.22
2019-03-28T03:00:34.922Z,73.12
2019-03-28T03:01:34.910Z,73.03
2019-03-28T03:02:35.077Z,72.84
2019-03-28T03:03:34.889Z,72.64
2019-03-28T03:04:34.880Z,72.55
2019-03-28T03:05:34.875Z,72.27
2019-03-28T03:06:34.868Z,72.17
2019-03-28T03:07:34.856Z,71.98
2019-03-28T03:08:36.065Z,71.6
2019-03-28T03:09:34.833Z,71.13
2019-03-28T03:10:34.833Z,70.94
2019-03-28T03:11:35.602Z,70.84
2019-03-28T03:12:34.810Z,70.37
2019-03-28T03:13:34.801Z,69.99
2019-03-28T03:14:34.791Z,69.9
2019-03-28T03:15:34.782Z,69.71
2019-03-28T03:16:34.776Z,69.52
2019-03-28T03:17:34.525Z,68.85
2019-03-28T03:18:36.205Z,68.29
2019-03-28T03:19:34.757Z,68.13
2019-03-28T03:20:34.740Z,68.13
2019-03-28T03:21:35.898Z,68.23
2019-03-28T03:22:34.723Z,67.85
2019-03-28T03:23:34.715Z,67.46
2019-03-28T03:24:34.708Z,67.27
2019-03-28T03:25:34.693Z,67.27
2019-03-28T03:26:34.683Z,67.27
2019-03-28T03:27:34.678Z,67.27
2019-03-28T03:28:34.670Z,67.46
2019-03-28T03:29:34.656Z,67.56
2019-03-28T03:30:34.788Z,67.75
2019-03-28T03:31:34.655Z,67.85
2019-03-28T03:32:34.658Z,67.75
2019-03-28T03:33:37.026Z,67.75
2019-03-28T03:34:35.958Z,67.85
2019-03-28T03:35:34.605Z,67.94
2019-03-28T03:36:34.592Z,68.04
2019-03-28T03:37:34.585Z,68.13
2019-03-28T03:38:34.573Z,68.13
2019-03-28T03:39:34.565Z,68.04
2019-03-28T03:40:34.558Z,68.13
2019-03-28T03:41:34.574Z,67.94
2019-03-28T03:42:34.689Z,68.23
2019-03-28T03:43:34.277Z,68.32
2019-03-28T03:44:34.519Z,68.29
2019-03-28T03:45:35.562Z,68.48
2019-03-28T03:46:34.509Z,68.66
2019-03-28T03:47:34.501Z,68.85
2019-03-28T03:48:34.486Z,68.85
2019-03-28T03:49:34.509Z,69.04
2019-03-28T03:50:34.467Z,69.04
2019-03-28T03:51:34.475Z,69.04
2019-03-28T03:52:34.456Z,69.04
2019-03-28T03:53:34.437Z,69.04
2019-03-28T03:54:34.429Z,68.95
2019-03-28T03:55:34.427Z,69.04
2019-03-28T03:56:34.414Z,69.13
2019-03-28T03:57:34.401Z,69.13
2019-03-28T03:58:34.393Z,68.95
2019-03-28T03:59:34.384Z,68.85
2019-03-28T04:00:34.383Z,68.76
2019-03-28T04:01:34.375Z,68.95
2019-03-28T04:02:34.358Z,69.13
2019-03-28T04:03:34.355Z,69.13
2019-03-28T04:04:34.335Z,69.23
2019-03-28T04:05:34.330Z,69.33
2019-03-28T04:06:34.321Z,69.42
2019-03-28T04:07:34.311Z,69.42
2019-03-28T04:08:34.305Z,69.33
2019-03-28T04:09:34.294Z,68.95
2019-03-28T04:10:34.283Z,68.76
2019-03-28T04:11:34.276Z,68.66
2019-03-28T04:12:34.267Z,68.95
2019-03-28T04:13:34.271Z,69.13
2019-03-28T04:14:34.253Z,69.23
2019-03-28T04:15:34.239Z,69.33
2019-03-28T04:16:34.231Z,69.33
2019-03-28T04:17:34.220Z,69.42
2019-03-28T04:18:34.221Z,69.42
2019-03-28T04:19:34.736Z,69.42
2019-03-28T04:20:33.942Z,69.52
2019-03-28T04:21:34.191Z,69.61
2019-03-28T04:22:34.176Z,69.61
2019-03-28T04:23:34.168Z,69.61
2019-03-28T04:24:34.172Z,69.42
2019-03-28T04:25:34.178Z,69.33
2019-03-28T04:26:34.453Z,69.33
2019-03-28T04:27:34.130Z,69.42
2019-03-28T04:28:35.228Z,69.23
2019-03-28T04:29:34.111Z,69.04
2019-03-28T04:30:34.103Z,69.04
2019-03-28T04:31:34.107Z,68.95
2019-03-28T04:32:34.092Z,68.85
2019-03-28T04:33:34.079Z,68.95
2019-03-28T04:34:34.070Z,69.13
2019-03-28T04:35:34.072Z,69.13
2019-03-28T04:36:34.059Z,69.04
2019-03-28T04:37:35.116Z,68.85
2019-03-28T04:38:34.030Z,68.85
2019-03-28T04:39:34.029Z,68.48
2019-03-28T04:40:34.516Z,68.32
2019-03-28T04:41:34.047Z,68.32
2019-03-28T04:42:33.997Z,68.23
2019-03-28T04:43:33.986Z,67.85
2019-03-28T04:44:33.984Z,67.85
2019-03-28T04:45:33.966Z,67.75
2019-03-28T04:46:33.965Z,67.75
2019-03-28T04:47:33.948Z,67.75
2019-03-28T04:48:33.941Z,67.75
2019-03-28T04:49:33.937Z,67.75
2019-03-28T04:50:33.920Z,67.75
2019-03-28T04:51:33.912Z,67.94
2019-03-28T04:52:34.516Z,68.04
2019-03-28T04:53:33.643Z,67.94
2019-03-28T04:54:33.884Z,67.85
2019-03-28T04:55:33.875Z,67.65
2019-03-28T04:56:33.867Z,67.65
2019-03-28T04:57:33.857Z,67.65
2019-03-28T04:58:46.878Z,67.85
2019-03-28T04:59:33.838Z,67.85
2019-03-28T05:00:33.830Z,67.75
2019-03-28T05:01:33.821Z,67.75
2019-03-28T05:02:34.004Z,67.85
2019-03-28T05:03:33.805Z,67.65
2019-03-28T05:04:33.793Z,67.65
2019-03-28T05:05:34.824Z,67.56
2019-03-28T05:06:33.812Z,67.65
2019-03-28T05:07:33.847Z,67.75
2019-03-28T05:08:33.765Z,67.65
2019-03-28T05:09:33.751Z,67.56
2019-03-28T05:10:35.586Z,67.65
2019-03-28T05:11:33.843Z,67.85
2019-03-28T05:12:33.722Z,68.04
2019-03-28T05:13:33.458Z,68.04
2019-03-28T05:14:33.703Z,68.23
2019-03-28T05:15:34.526Z,68.32
2019-03-28T05:16:33.686Z,68.23
2019-03-28T05:17:33.676Z,68.23
2019-03-28T05:18:34.197Z,68.23
2019-03-28T05:19:33.658Z,68.04
2019-03-28T05:20:33.651Z,67.85
2019-03-28T05:21:33.864Z,67.75
2019-03-28T05:22:33.630Z,67.65
2019-03-28T05:23:33.621Z,67.65
2019-03-28T05:24:33.362Z,67.65
2019-03-28T05:25:33.602Z,67.75
2019-03-28T05:26:33.593Z,67.85
2019-03-28T05:27:33.674Z,68.04
2019-03-28T05:28:33.575Z,67.94
2019-03-28T05:29:33.564Z,67.75
2019-03-28T05:30:33.555Z,67.56
2019-03-28T05:31:34.300Z,67.65
2019-03-28T05:32:33.539Z,67.85
2019-03-28T05:33:33.529Z,67.75
2019-03-28T05:34:34.330Z,67.65
2019-03-28T05:35:33.509Z,67.56
2019-03-28T05:36:33.502Z,67.75
2019-03-28T05:37:33.489Z,68.13
2019-03-28T05:38:33.484Z,68.04
2019-03-28T05:39:33.472Z,67.75
2019-03-28T05:40:33.463Z,67.56
2019-03-28T05:41:33.456Z,67.46
2019-03-28T05:42:33.448Z,67.56
2019-03-28T05:43:33.436Z,67.75
2019-03-28T05:44:33.427Z,68.04
2019-03-28T05:45:33.171Z,68.41
2019-03-28T05:46:33.409Z,68.7
2019-03-28T05:47:33.409Z,68.89
2019-03-28T05:48:33.391Z,68.98
2019-03-28T05:49:33.383Z,69.08
2019-03-28T05:50:33.375Z,69.17
2019-03-28T05:51:33.366Z,69.17
2019-03-28T05:52:33.356Z,68.79
2019-03-28T05:53:33.351Z,68.7
2019-03-28T05:54:33.339Z,68.32
2019-03-28T05:55:33.367Z,67.75
2019-03-28T05:56:33.319Z,67.75
2019-03-28T05:57:33.308Z,67.85
2019-03-28T05:58:33.302Z,67.85
2019-03-28T05:59:33.292Z,68.04
2019-03-28T06:00:33.283Z,68.04
2019-03-28T06:01:33.274Z,68.04
2019-03-28T06:02:33.265Z,67.65
2019-03-28T06:03:33.258Z,67.56
2019-03-28T06:04:33.246Z,67.65
2019-03-28T06:05:33.236Z,67.56
2019-03-28T06:06:33.225Z,66.99
2019-03-28T06:07:33.218Z,67.08
2019-03-28T06:08:33.301Z,66.99
2019-03-28T06:09:33.203Z,67.08
2019-03-28T06:10:33.190Z,67.08
2019-03-28T06:11:33.179Z,66.71
2019-03-28T06:12:33.181Z,66.23
2019-03-28T06:13:33.168Z,66.33
2019-03-28T06:14:33.277Z,66.23
2019-03-28T06:15:33.146Z,66.33
2019-03-28T06:16:33.142Z,65.95
2019-03-28T06:17:33.129Z,66.04
2019-03-28T06:18:33.129Z,66.23
2019-03-28T06:19:33.110Z,66.14
2019-03-28T06:20:33.100Z,66.14
2019-03-28T06:21:33.091Z,66.23
2019-03-28T06:22:33.088Z,66.42
2019-03-28T06:23:33.072Z,66.23
2019-03-28T06:24:33.979Z,66.33
2019-03-28T06:25:33.059Z,66.23
2019-03-28T06:26:33.047Z,66.14
2019-03-28T06:27:33.335Z,66.14
2019-03-28T06:28:33.029Z,66.33
2019-03-28T06:29:33.027Z,66.33
2019-03-28T06:30:33.009Z,66.23
2019-03-28T06:31:33.002Z,66.42
2019-03-28T06:32:45.171Z,66.04
2019-03-28T06:33:32.988Z,65.95
2019-03-28T06:34:32.975Z,65.98
2019-03-28T06:35:32.967Z,66.17
2019-03-28T06:36:32.961Z,66.36
2019-03-28T06:37:32.950Z,66.46
2019-03-28T06:38:32.940Z,66.36
2019-03-28T06:39:32.932Z,66.08
2019-03-28T06:40:33.811Z,65.88
2019-03-28T06:41:32.914Z,65.79
2019-03-28T06:42:32.907Z,65.88
2019-03-28T06:43:32.900Z,65.69
2019-03-28T06:44:32.889Z,65.69
2019-03-28T06:45:32.878Z,65.69
2019-03-28T06:46:32.872Z,65.31
2019-03-28T06:47:32.864Z,64.75
2019-03-28T06:48:32.851Z,64.84
2019-03-28T06:49:32.849Z,64.94
2019-03-28T06:50:32.834Z,64.65
2019-03-28T06:51:32.825Z,64.84
2019-03-28T06:52:32.815Z,64.84
2019-03-28T06:53:32.807Z,64.56
2019-03-28T06:54:33.252Z,64.65
2019-03-28T06:55:32.793Z,64.65
2019-03-28T06:56:32.782Z,63.98
2019-03-28T06:57:32.774Z,63.51
2019-03-28T06:58:32.767Z,63.51
2019-03-28T06:59:40.031Z,63.32
2019-03-28T07:00:32.745Z,63.13
2019-03-28T07:01:32.740Z,63.23
2019-03-28T07:02:32.732Z,62.97
2019-03-28T07:03:32.721Z,62.88
2019-03-28T07:04:32.838Z,63.45
2019-03-28T07:05:32.708Z,63.73
2019-03-28T07:06:32.696Z,63.17
2019-03-28T07:07:32.682Z,62.88
2019-03-28T07:08:32.674Z,62.97
2019-03-28T07:09:32.663Z,63.17
2019-03-28T07:10:32.657Z,63.35
2019-03-28T07:11:32.702Z,63.35
2019-03-28T07:12:32.639Z,63.17
2019-03-28T07:13:32.632Z,62.69
2019-03-28T07:14:32.619Z,62.59
2019-03-28T07:15:32.617Z,62.69
2019-03-28T07:16:32.604Z,62.5
2019-03-28T07:17:32.592Z,62.21
2019-03-28T07:18:32.586Z,62.4
2019-03-28T07:19:32.582Z,62.31
2019-03-28T07:20:32.568Z,62.12
2019-03-28T07:21:32.312Z,62.21
2019-03-28T07:22:32.564Z,62.4
2019-03-28T07:23:32.556Z,61.83
2019-03-28T07:24:32.536Z,61.74
2019-03-28T07:25:32.527Z,61.74
2019-03-28T07:26:32.524Z,61.83
2019-03-28T07:27:32.507Z,62.02
2019-03-28T07:28:33.535Z,62.21
2019-03-28T07:29:32.499Z,61.93
2019-03-28T07:30:32.479Z,61.83
2019-03-28T07:31:35.326Z,61.74
2019-03-28T07:32:32.467Z,61.36
2019-03-28T07:33:32.209Z,61.36
2019-03-28T07:34:32.450Z,61.45
2019-03-28T07:35:32.441Z,61.45
2019-03-28T07:36:32.433Z,61.45
2019-03-28T07:37:32.429Z,61.26
2019-03-28T07:38:32.419Z,61.29
2019-03-28T07:39:32.405Z,61.55
2019-03-28T07:40:35.661Z,61.45
2019-03-28T07:41:32.387Z,61.48
2019-03-28T07:42:32.376Z,61.39
2019-03-28T07:43:32.370Z,61.2
2019-03-28T07:44:32.385Z,61.01
2019-03-28T07:45:34.390Z,60.63
2019-03-28T07:46:32.342Z,59.87
2019-03-28T07:47:32.336Z,59.2
2019-03-28T07:48:32.326Z,59.01
2019-03-28T07:49:32.321Z,58.54
2019-03-28T07:50:35.646Z,58.83
2019-03-28T07:51:32.303Z,59.2
2019-03-28T07:52:32.295Z,59.3
2019-03-28T07:53:32.295Z,58.92
2019-03-28T07:54:32.273Z,58.66
2019-03-28T07:55:32.276Z,58.37
2019-03-28T07:56:32.259Z,58.18
2019-03-28T07:57:32.252Z,58
2019-03-28T07:58:32.246Z,57.62
2019-03-28T07:59:32.236Z,57.14
2019-03-28T08:00:32.236Z,56.67
2019-03-28T08:01:32.220Z,56.29
2019-03-28T08:02:32.215Z,56
2019-03-28T08:03:32.200Z,56.1
2019-03-28T08:04:32.190Z,55.81
2019-03-28T08:05:32.184Z,55.24
2019-03-28T08:06:32.173Z,55.24
2019-03-28T08:07:44.191Z,55.9
2019-03-28T08:08:44.041Z,55.24
2019-03-28T08:09:39.230Z,55.33
2019-03-28T08:10:31.889Z,54.96
2019-03-28T08:11:32.288Z,55.33
2019-03-28T08:12:32.930Z,54.96
2019-03-28T08:13:32.153Z,55.05
2019-03-28T08:14:32.155Z,55.43
2019-03-28T08:15:32.102Z,55.81
2019-03-28T08:16:32.116Z,55.33
2019-03-28T08:17:32.130Z,55.33
2019-03-28T08:18:32.071Z,55.62
2019-03-28T08:19:32.065Z,55.52
2019-03-28T08:20:32.056Z,55.33
2019-03-28T08:21:32.047Z,55.36
2019-03-28T08:22:32.112Z,55.17
2019-03-28T08:23:35.138Z,55.27
2019-03-28T08:24:32.024Z,55.27
2019-03-28T08:25:32.014Z,54.69
2019-03-28T08:26:32.865Z,54.32
2019-03-28T08:27:31.996Z,54.69
2019-03-28T08:28:31.988Z,54.79
2019-03-28T08:29:31.982Z,54.5
2019-03-28T08:30:31.721Z,53.94
2019-03-28T08:31:31.964Z,53.36
2019-03-28T08:32:31.960Z,53.17
2019-03-28T08:33:31.954Z,53.17
2019-03-28T08:34:33.731Z,53.08
2019-03-28T08:35:31.936Z,52.82
2019-03-28T08:36:31.921Z,51.78
2019-03-28T08:37:31.924Z,51.97
2019-03-28T08:38:32.766Z,52.34
2019-03-28T08:39:31.898Z,52.53
2019-03-28T08:40:31.898Z,52.15
2019-03-28T08:41:31.887Z,51.97
2019-03-28T08:42:31.869Z,50.82
2019-03-28T08:43:31.881Z,49.77
2019-03-28T08:44:31.858Z,49.49
2019-03-28T08:45:33.105Z,49.58
2019-03-28T08:46:31.846Z,48.54
2019-03-28T08:47:31.831Z,47.71
2019-03-28T08:48:31.825Z,46.56
2019-03-28T08:49:31.815Z,46.18
2019-03-28T08:50:31.806Z,45.89
2019-03-28T08:51:31.816Z,45.8
2019-03-28T08:52:31.792Z,45.51
2019-03-28T08:53:31.780Z,44.66
2019-03-28T08:54:31.773Z,44.46
2019-03-28T08:55:31.766Z,44.75
2019-03-28T08:56:31.756Z,44.27
2019-03-28T08:57:31.746Z,43.8
2019-03-28T08:58:31.740Z,43.9
2019-03-28T08:59:31.732Z,43.9
2019-03-28T09:00:50.747Z,43.99
2019-03-28T09:01:31.720Z,44.27
2019-03-28T09:02:31.706Z,44.46
2019-03-28T09:03:31.703Z,44.2
2019-03-28T09:04:31.693Z,43.91
2019-03-28T09:05:31.679Z,44.68
2019-03-28T09:06:31.678Z,44.78
2019-03-28T09:07:31.666Z,43.82
2019-03-28T09:08:31.660Z,43.63
2019-03-28T09:09:31.654Z,43.73
2019-03-28T09:10:31.649Z,43.06
2019-03-28T09:11:31.634Z,42.4
2019-03-28T09:12:34.937Z,42.77
2019-03-28T09:13:31.650Z,42.87
2019-03-28T09:14:34.359Z,42.96
2019-03-28T09:15:45.510Z,42.49
2019-03-28T09:16:31.793Z,41.44
2019-03-28T09:17:31.591Z,41.63
2019-03-28T09:18:31.325Z,42.01
2019-03-28T09:19:31.571Z,41.72
2019-03-28T09:20:31.585Z,41.06
2019-03-28T09:21:31.554Z,41.53
2019-03-28T09:22:31.547Z,41.25
2019-03-28T09:23:31.546Z,41.06
2019-03-28T09:24:31.532Z,41.25
2019-03-28T09:25:31.523Z,41.25
2019-03-28T09:26:31.513Z,41.63
2019-03-28T09:27:31.506Z,41.72
2019-03-28T09:28:31.501Z,41.63
2019-03-28T09:29:31.492Z,40.68
2019-03-28T09:30:31.485Z,41.06
2019-03-28T09:31:31.483Z,41.16
2019-03-28T09:32:31.467Z,40.3
2019-03-28T09:33:31.459Z,39.36
2019-03-28T09:34:31.450Z,38.89
2019-03-28T09:35:31.537Z,39.27
2019-03-28T09:36:31.580Z,38.89
2019-03-28T09:37:31.429Z,38.12
2019-03-28T09:38:31.422Z,38.22
2019-03-28T09:39:31.420Z,38.6
2019-03-28T09:40:31.413Z,38.51
2019-03-28T09:41:31.413Z,38.6
2019-03-28T09:42:31.391Z,38.32
2019-03-28T09:43:31.380Z,38.41
2019-03-28T09:44:31.374Z,38.79
2019-03-28T09:45:32.039Z,38.41
2019-03-28T09:46:31.913Z,37.93
2019-03-28T09:47:31.344Z,37.65
2019-03-28T09:48:31.343Z,38.12
2019-03-28T09:49:31.332Z,38.41
2019-03-28T09:50:31.323Z,38.51
2019-03-28T09:51:31.312Z,38.43
2019-03-28T09:52:31.306Z,37.86
2019-03-28T09:53:31.299Z,37.48
2019-03-28T09:54:31.294Z,37.38
2019-03-28T09:55:31.281Z,37.1
2019-03-28T09:56:31.274Z,37.38
2019-03-28T09:57:31.332Z,37.48
2019-03-28T09:58:31.265Z,37.1
2019-03-28T09:59:31.257Z,37.19
2019-03-28T10:00:32.851Z,37.29
2019-03-28T10:01:31.241Z,37.19
2019-03-28T10:02:31.236Z,37.29
2019-03-28T10:03:31.376Z,37
2019-03-28T10:04:31.215Z,36.81
2019-03-28T10:05:31.207Z,36.71
2019-03-28T10:06:31.199Z,36.81
2019-03-28T10:07:31.192Z,36.9
2019-03-28T10:08:31.184Z,36.52
2019-03-28T10:09:31.177Z,36.43
2019-03-28T10:10:31.170Z,36.43
2019-03-28T10:11:31.162Z,36.9
2019-03-28T10:12:34.074Z,36.81
2019-03-28T10:13:31.145Z,36.52
2019-03-28T10:14:31.138Z,36.52
2019-03-28T10:15:31.129Z,36.71
2019-03-28T10:16:31.121Z,36.9
2019-03-28T10:17:31.114Z,36.9
2019-03-28T10:18:32.675Z,36.24
2019-03-28T10:19:31.100Z,35.66
2019-03-28T10:20:31.095Z,36.14
2019-03-28T10:21:31.083Z,36.62
2019-03-28T10:22:31.077Z,36.33
2019-03-28T10:23:31.067Z,36.14
2019-03-28T10:24:31.070Z,36.33
2019-03-28T10:25:31.052Z,37
2019-03-28T10:26:31.046Z,37.38
2019-03-28T10:27:31.037Z,37
2019-03-28T10:28:31.044Z,36.44
2019-03-28T10:29:31.021Z,36.16
2019-03-28T10:30:31.015Z,36.35
2019-03-28T10:31:31.008Z,36.35
2019-03-28T10:32:30.999Z,36.35
2019-03-28T10:33:30.992Z,35.68
2019-03-28T10:34:31.886Z,35.3
2019-03-28T10:35:30.978Z,34.63
2019-03-28T10:36:30.971Z,35.21
2019-03-28T10:37:30.963Z,35.59
2019-03-28T10:38:30.954Z,35.78
2019-03-28T10:39:30.959Z,35.78
2019-03-28T10:40:30.939Z,35.59
2019-03-28T10:41:31.423Z,35.49
2019-03-28T10:42:30.924Z,35.39
2019-03-28T10:43:30.918Z,35.78
2019-03-28T10:44:30.910Z,36.07
2019-03-28T10:45:33.543Z,35.68
2019-03-28T10:46:30.902Z,35.39
2019-03-28T10:47:30.892Z,35.21
2019-03-28T10:48:30.880Z,35.49
2019-03-28T10:49:30.880Z,35.02
2019-03-28T10:50:45.691Z,35.11
2019-03-28T10:51:30.872Z,35.02
2019-03-28T10:52:30.852Z,35.59
2019-03-28T10:53:32.580Z,35.39
2019-03-28T10:54:30.833Z,35.22
2019-03-28T10:55:30.825Z,34.94
2019-03-28T10:56:30.820Z,35.13
2019-03-28T10:57:33.690Z,35.03
2019-03-28T10:58:30.802Z,35.22
2019-03-28T10:59:30.797Z,35.03
2019-03-28T11:00:30.799Z,35.13
2019-03-28T11:01:50.797Z,35.03
2019-03-28T11:02:31.457Z,35.13
2019-03-28T11:03:30.768Z,34.75
2019-03-28T11:04:30.759Z,34.75
2019-03-28T11:05:30.499Z,34.46
2019-03-28T11:06:30.743Z,33.98
2019-03-28T11:07:30.734Z,34.17
2019-03-28T11:08:30.726Z,34.94
2019-03-28T11:09:30.720Z,34.75
2019-03-28T11:10:33.034Z,34.55
2019-03-28T11:11:30.706Z,34.65
2019-03-28T11:12:30.699Z,34.46
2019-03-28T11:13:30.441Z,34.09
2019-03-28T11:14:30.685Z,34
2019-03-28T11:15:30.675Z,34.38
2019-03-28T11:16:31.873Z,34
2019-03-28T11:17:30.666Z,33.42
2019-03-28T11:18:30.654Z,33.91
2019-03-28T11:19:30.655Z,34
2019-03-28T11:20:30.642Z,34.09
2019-03-28T11:21:30.383Z,34.19
2019-03-28T11:22:30.630Z,33.91
2019-03-28T11:23:30.620Z,34
2019-03-28T11:24:31.509Z,34.38
2019-03-28T11:25:30.666Z,34.38
2019-03-28T11:26:31.455Z,34.48
2019-03-28T11:27:30.592Z,34.46
2019-03-28T11:28:30.581Z,35.03
2019-03-28T11:29:30.575Z,35.7
2019-03-28T11:30:30.583Z,36.08
2019-03-28T11:31:30.561Z,36.18
2019-03-28T11:32:30.550Z,35.8
2019-03-28T11:33:30.542Z,35.03
2019-03-28T11:34:30.533Z,35.13
2019-03-28T11:35:30.527Z,35.22
2019-03-28T11:36:30.519Z,35.7
2019-03-28T11:37:30.920Z,35.22
2019-03-28T11:38:31.229Z,34.94
2019-03-28T11:39:30.497Z,35.32
2019-03-28T11:40:30.490Z,35.13
2019-03-28T11:41:30.482Z,35.05
2019-03-28T11:42:30.528Z,35.24
2019-03-28T11:43:30.473Z,36.1
2019-03-28T11:44:30.460Z,35.82
2019-03-28T11:45:30.456Z,35.33
2019-03-28T11:46:30.445Z,34.28
2019-03-28T11:47:30.437Z,33.81
2019-03-28T11:48:30.428Z,34.28
2019-03-28T11:49:30.421Z,34.28
2019-03-28T11:50:30.419Z,34.28
2019-03-28T11:51:30.698Z,34.4
2019-03-28T11:52:30.401Z,34.3
2019-03-28T11:53:30.391Z,34.2
2019-03-28T11:54:30.389Z,33.54
2019-03-28T11:55:30.379Z,33.73
2019-03-28T11:56:30.373Z,33.83
2019-03-28T11:57:30.366Z,33.83
2019-03-28T11:58:30.355Z,33.35
2019-03-28T11:59:30.350Z,33.35
2019-03-28T12:00:30.352Z,33.15
2019-03-28T12:01:30.599Z,32.87
2019-03-28T12:02:30.325Z,32.49
2019-03-28T12:03:30.323Z,32.58
2019-03-28T12:04:30.313Z,33.06
2019-03-28T12:05:30.307Z,33.35
2019-03-28T12:06:30.294Z,33.44
2019-03-28T12:07:30.288Z,33.06
2019-03-28T12:08:30.285Z,32.79
2019-03-28T12:09:30.279Z,32.21
2019-03-28T12:10:30.268Z,32.21
2019-03-28T12:11:30.263Z,32.21
2019-03-28T12:12:30.255Z,32.29
2019-03-28T12:13:39.063Z,32.58
2019-03-28T12:14:30.236Z,32.68
2019-03-28T12:15:30.297Z,32.2
2019-03-28T12:16:30.225Z,32.29
2019-03-28T12:17:30.213Z,32.31
2019-03-28T12:18:30.208Z,32.21
2019-03-28T12:19:30.202Z,31.74
2019-03-28T12:20:30.252Z,31.84
2019-03-28T12:21:30.186Z,31.92
2019-03-28T12:22:30.178Z,32.58
2019-03-28T12:23:30.172Z,33.15
2019-03-28T12:24:30.172Z,33.27
2019-03-28T12:25:30.157Z,32.89
2019-03-28T12:26:30.148Z,32.6
2019-03-28T12:27:30.162Z,33.07
2019-03-28T12:28:30.134Z,33.44
2019-03-28T12:29:30.128Z,33.83
2019-03-28T12:30:30.117Z,33.27
2019-03-28T12:31:33.032Z,33.06
2019-03-28T12:32:30.109Z,33.73
2019-03-28T12:33:30.097Z,34.2
2019-03-28T12:34:30.091Z,33.17
2019-03-28T12:35:30.082Z,32.98
2019-03-28T12:36:30.075Z,32.98
2019-03-28T12:37:30.066Z,32.21
2019-03-28T12:38:31.126Z,32.21
2019-03-28T12:39:30.051Z,32.5
2019-03-28T12:40:30.045Z,33.07
2019-03-28T12:41:30.062Z,32.7
2019-03-28T12:42:30.030Z,32.12
2019-03-28T12:43:30.023Z,32.21
2019-03-28T12:44:30.017Z,31.84
2019-03-28T12:45:30.008Z,31.45
2019-03-28T12:46:30.002Z,31.74
2019-03-28T12:47:44.084Z,32.12
2019-03-28T12:48:29.987Z,32.12
2019-03-28T12:49:29.982Z,31.93
2019-03-28T12:50:29.974Z,31.84
2019-03-28T12:51:29.965Z,31.64
2019-03-28T12:52:32.306Z,32.12
2019-03-28T12:53:29.950Z,32.5
2019-03-28T12:54:31.026Z,32.31
2019-03-28T12:55:29.934Z,32.5